Weather at Altomünster ULM

Public forecast

Using degrees Celsius for public forecast. Weather courtesy of forecast.io.

Closest aviation weather report (METAR) to Altomünster ULM

Closest report is Augsburg Airport, 13.9 nm (25.7 km) W.

2022/12/06 13:50 (retrieved 12 minutes ago)

EDMA 061350Z 27005KT 9999 FEW014 03/01 Q1016

Closest aviation forecast (TAF) to Altomünster ULM

Closest forecast is Munich Airport, 20.5 nm (38.0 km) E.

2022/12/06 12:27 (retrieved 2 hours ago)

TAF EDDM 061100Z 0612/0718 26005KT 9999 SCT020 BKN040 TEMPO 0617/0708 BKN008 PROB30 TEMPO 0622/0702 4000 -DZRA